Time;durP1;ratioP1;P1;durP2;ratioP2;P2;SDS_P1;SDS_P2;PMS_P1;PMS_P2;Temp;Humidity;BMP_temperature;BMP_pressure;BME280_temperature;BME280_humidity;BME280_pressure;Samples;Min_cycle;Max_cycle;Signal;HPM_P1;HPM_P2
2023/06/16 00:00:19;;;;;;;5.90;3.85;;;;;;;17.81;61.75;101669.81;4993089;28;20080;-83
2023/06/16 00:02:48;;;;;;;7.17;3.87;;;;;;;17.75;62.20;101670.81;4993824;28;20030;-83
2023/06/16 00:05:14;;;;;;;8.88;3.78;;;;;;;17.70;62.39;101669.63;4993184;28;20027;-83
2023/06/16 00:07:39;;;;;;;6.32;3.72;;;;;;;17.66;63.01;101670.34;4994228;28;20033;-83
2023/06/16 00:10:09;;;;;;;9.10;4.17;;;;;;;17.60;64.13;101668.56;4993283;28;20038;-83
2023/06/16 00:12:36;;;;;;;9.13;3.80;;;;;;;17.52;64.54;101669.78;4994232;28;20049;-83
2023/06/16 00:15:02;;;;;;;6.28;3.92;;;;;;;17.48;64.13;101666.69;4993420;28;20077;-83
2023/06/16 00:17:28;;;;;;;9.48;4.00;;;;;;;17.44;66.08;101661.94;4993015;28;20127;-83
2023/06/16 00:19:58;;;;;;;8.03;3.57;;;;;;;17.44;67.07;101664.69;4993084;28;20483;-83
2023/06/16 00:22:27;;;;;;;13.13;4.45;;;;;;;17.38;65.55;101668.34;4977087;28;20081;-83
2023/06/16 00:24:53;;;;;;;6.95;4.32;;;;;;;17.31;64.18;101665.75;4994191;28;20493;-83
2023/06/16 00:27:22;;;;;;;9.50;4.10;;;;;;;17.30;63.71;101675.06;4992999;28;20058;-83
2023/06/16 00:29:49;;;;;;;5.80;4.15;;;;;;;17.25;64.70;101669.47;4992924;28;20033;-83
2023/06/16 00:32:14;;;;;;;8.95;3.90;;;;;;;17.22;62.96;101673.53;4993222;28;20382;-83
2023/06/16 00:34:40;;;;;;;8.40;4.37;;;;;;;17.21;62.89;101674.59;4993605;28;20027;-83
2023/06/16 00:37:05;;;;;;;7.80;3.90;;;;;;;17.18;62.43;101675.91;4992761;28;20061;-83
2023/06/16 00:39:31;;;;;;;6.50;4.07;;;;;;;17.15;62.90;101673.63;4992613;28;20181;-83
2023/06/16 00:41:56;;;;;;;7.33;3.90;;;;;;;17.12;62.48;101665.88;4994196;28;20467;-83
2023/06/16 00:44:22;;;;;;;8.27;4.10;;;;;;;17.08;63.85;101672.09;4992962;28;20038;-83
2023/06/16 00:46:48;;;;;;;8.90;4.00;;;;;;;17.05;63.39;101667.94;4976572;28;20030;-83
2023/06/16 00:49:16;;;;;;;6.27;4.20;;;;;;;17.01;62.99;101672.22;4977059;28;20030;-83
2023/06/16 00:51:42;;;;;;;7.55;4.25;;;;;;;16.98;65.12;101669.97;4992694;28;20034;-83
2023/06/16 00:54:10;;;;;;;7.97;4.17;;;;;;;16.94;67.24;101664.09;4977254;28;20073;-83
2023/06/16 00:56:37;;;;;;;9.47;3.83;;;;;;;16.91;66.69;101666.50;4997900;28;20309;-83
2023/06/16 00:59:02;;;;;;;8.45;4.05;;;;;;;16.83;63.90;101664.94;4997349;28;20031;-83
2023/06/16 01:01:34;;;;;;;7.77;4.10;;;;;;;16.81;64.43;101661.56;4998002;28;20511;-83
2023/06/16 01:04:00;;;;;;;7.43;4.18;;;;;;;16.73;67.12;101654.53;4996698;28;20041;-83
2023/06/16 01:06:32;;;;;;;9.95;3.90;;;;;;;16.76;65.69;101661.47;4997425;28;20034;-83
2023/06/16 01:09:15;;;;;;;7.00;4.40;;;;;;;16.71;65.39;101653.09;4996926;28;20042;-83
2023/06/16 01:11:47;;;;;;;12.63;4.30;;;;;;;16.68;66.04;101657.16;4997316;28;20057;-83
2023/06/16 01:14:23;;;;;;;9.00;4.47;;;;;;;16.63;64.57;101646.91;4997174;28;20031;-83
2023/06/16 01:16:51;;;;;;;12.23;4.82;;;;;;;16.63;66.53;101649.63;4996587;28;20057;-83
2023/06/16 01:19:37;;;;;;;9.38;4.65;;;;;;;16.60;64.66;101652.84;4997382;28;20030;-83
2023/06/16 01:22:21;;;;;;;5.95;4.20;;;;;;;16.62;63.33;101644.41;4997224;28;20133;-83
2023/06/16 01:24:47;;;;;;;7.43;4.50;;;;;;;16.53;64.46;101638.44;4997088;28;20041;-83
2023/06/16 01:27:17;;;;;;;8.03;4.90;;;;;;;16.51;64.34;101650.72;4996570;28;20034;-83
2023/06/16 01:29:46;;;;;;;8.07;4.93;;;;;;;16.45;64.26;101655.22;4996189;28;20441;-83
2023/06/16 01:32:12;;;;;;;9.32;4.88;;;;;;;16.49;65.45;101653.69;4996060;28;20034;-83
2023/06/16 01:34:39;;;;;;;8.77;4.90;;;;;;;16.45;64.62;101655.22;4979477;28;20092;-83
2023/06/16 01:37:06;;;;;;;14.15;5.05;;;;;;;16.42;66.41;101647.47;4979755;28;20027;-83
2023/06/16 01:39:33;;;;;;;10.90;5.10;;;;;;;16.40;65.88;101649.59;4995838;28;20031;-83
2023/06/16 01:42:00;;;;;;;8.13;4.93;;;;;;;16.36;66.32;101646.50;4979627;28;20089;-83
2023/06/16 01:44:33;;;;;;;12.32;5.25;;;;;;;16.36;66.44;101645.66;4997407;28;20117;-83
2023/06/16 01:46:58;;;;;;;7.82;4.97;;;;;;;16.33;65.68;101649.72;4995322;28;20035;-83
2023/06/16 01:49:25;;;;;;;12.33;5.10;;;;;;;16.31;65.24;101652.69;4979300;28;20389;-83
2023/06/16 01:51:50;;;;;;;11.45;5.15;;;;;;;16.23;66.10;101642.06;4980230;28;20041;-83
2023/06/16 01:54:18;;;;;;;9.87;5.00;;;;;;;16.20;66.11;101641.72;4996793;28;20026;-83
2023/06/16 01:56:43;;;;;;;12.07;5.05;;;;;;;16.16;67.13;101645.97;4979496;28;20117;-83
2023/06/16 01:59:11;;;;;;;7.67;5.00;;;;;;;16.14;66.75;101648.94;4995426;28;20419;-83
2023/06/16 02:01:45;;;;;;;9.38;5.07;;;;;;;16.07;66.52;101642.72;4995386;28;20037;-83
2023/06/16 02:04:21;;;;;;;12.25;4.70;;;;;;;16.03;65.55;101647.00;4996601;28;20023;-83
2023/06/16 02:07:04;;;;;;;10.23;5.22;;;;;;;15.98;66.10;101644.97;4995190;28;20037;-83
2023/06/16 02:09:32;;;;;;;9.03;5.40;;;;;;;15.94;67.65;101650.06;4995239;28;20042;-83
2023/06/16 02:11:58;;;;;;;8.88;5.18;;;;;;;15.92;67.68;101652.19;4995198;28;20479;-83
2023/06/16 02:14:27;;;;;;;8.48;5.22;;;;;;;15.87;67.55;101649.34;4995425;28;20034;-83
2023/06/16 02:16:52;;;;;;;7.85;5.07;;;;;;;15.87;68.46;101651.22;4995155;28;20034;-83
2023/06/16 02:19:18;;;;;;;10.83;5.20;;;;;;;15.81;66.73;101654.88;4995288;28;20482;-83
2023/06/16 02:21:44;;;;;;;7.20;4.97;;;;;;;15.79;67.04;101650.47;4994665;28;20459;-82
2023/06/16 02:24:10;;;;;;;9.57;5.88;;;;;;;15.78;67.90;101654.28;4995000;28;20470;-83
2023/06/16 02:26:39;;;;;;;9.40;5.47;;;;;;;15.75;69.17;101657.44;4994854;28;20113;-83
2023/06/16 02:29:05;;;;;;;8.35;5.85;;;;;;;15.69;68.34;101652.06;4994592;28;20027;-83
2023/06/16 02:31:30;;;;;;;14.30;5.63;;;;;;;15.67;68.58;101646.00;4995080;28;20133;-83
2023/06/16 02:33:59;;;;;;;10.27;5.40;;;;;;;15.66;68.75;101655.25;4995029;28;20363;-82
2023/06/16 02:36:28;;;;;;;10.47;5.43;;;;;;;15.64;69.97;101652.75;4995038;28;20065;-82
2023/06/16 02:38:56;;;;;;;7.38;5.45;;;;;;;15.62;70.11;101660.34;4994731;28;20050;-83
2023/06/16 02:41:22;;;;;;;12.00;5.40;;;;;;;15.59;70.99;101655.34;4978390;28;20034;-83
2023/06/16 02:43:47;;;;;;;10.53;5.60;;;;;;;15.54;68.37;101652.44;4978662;28;20034;-82
2023/06/16 02:46:13;;;;;;;17.00;5.73;;;;;;;15.52;68.65;101652.69;4978868;28;20057;-83
2023/06/16 02:48:38;;;;;;;15.43;5.53;;;;;;;15.48;68.92;101654.19;4978515;28;20737;-83
2023/06/16 02:51:04;;;;;;;7.47;5.10;;;;;;;15.44;68.89;101644.78;4994576;28;20474;-83
2023/06/16 02:53:30;;;;;;;10.98;5.32;;;;;;;15.42;68.52;101655.13;4994169;28;20073;-82
2023/06/16 02:55:56;;;;;;;10.03;5.83;;;;;;;15.40;68.19;101647.16;4978010;28;20502;-83
2023/06/16 02:58:22;;;;;;;7.35;5.20;;;;;;;15.34;66.55;101648.06;4995103;28;20122;-83
2023/06/16 03:00:48;;;;;;;10.38;5.60;;;;;;;15.31;66.31;101643.06;4978027;28;20062;-83
2023/06/16 03:03:16;;;;;;;9.60;5.70;;;;;;;15.27;68.22;101642.66;4995006;28;20033;-82
2023/06/16 03:05:42;;;;;;;10.10;5.18;;;;;;;15.24;68.47;101650.50;4977907;28;20034;-83
2023/06/16 03:08:08;;;;;;;11.53;5.40;;;;;;;15.21;67.60;101649.03;4994403;28;20118;-83
2023/06/16 03:10:33;;;;;;;8.43;5.35;;;;;;;15.17;69.47;101653.28;4995076;28;20080;-83
2023/06/16 03:12:59;;;;;;;8.90;5.37;;;;;;;15.13;69.42;101651.22;4961831;28;20038;-83
2023/06/16 03:15:27;;;;;;;5.95;5.35;;;;;;;15.07;69.47;101653.81;4977822;28;20041;-83
2023/06/16 03:17:55;;;;;;;10.47;5.23;;;;;;;15.05;69.63;101657.81;4993284;28;20030;-83
2023/06/16 03:20:21;;;;;;;11.82;5.30;;;;;;;15.04;70.37;101658.88;4993834;28;20027;-83
2023/06/16 03:22:47;;;;;;;8.93;5.70;;;;;;;14.98;71.56;101654.31;4977517;28;20100;-83
2023/06/16 03:25:12;;;;;;;7.17;6.00;;;;;;;14.97;72.47;101655.38;4994037;28;20113;-83
2023/06/16 03:27:40;;;;;;;9.50;6.00;;;;;;;14.92;72.95;101653.31;4977631;28;20137;-83
2023/06/16 03:30:07;;;;;;;12.97;5.63;;;;;;;14.89;73.74;101659.25;4993794;28;20057;-83
2023/06/16 03:32:33;;;;;;;13.60;6.07;;;;;;;14.87;75.46;101664.94;4993767;28;20041;-83
2023/06/16 03:35:04;;;;;;;14.10;5.70;;;;;;;14.87;74.35;101659.47;4993941;28;20038;-82
2023/06/16 03:37:31;;;;;;;11.75;5.95;;;;;;;14.83;74.46;101663.69;4993440;28;20026;-82
2023/06/16 03:39:56;;;;;;;9.75;6.15;;;;;;;14.82;73.85;101666.66;4993779;28;20542;-83
2023/06/16 03:42:22;;;;;;;10.47;5.97;;;;;;;14.82;74.40;101669.38;4977265;28;20122;-82
2023/06/16 03:44:48;;;;;;;8.73;5.87;;;;;;;14.78;73.53;101665.41;4994411;28;20038;-83
2023/06/16 03:47:14;;;;;;;10.65;6.22;;;;;;;14.78;72.19;101671.75;4993388;28;20089;-82
2023/06/16 03:49:39;;;;;;;12.60;5.97;;;;;;;14.77;71.41;101663.78;4977206;28;20037;-82
2023/06/16 03:52:06;;;;;;;9.90;5.50;;;;;;;14.78;73.23;101669.00;4993500;28;20039;-82
2023/06/16 03:54:31;;;;;;;8.67;5.97;;;;;;;14.80;71.37;101661.41;4994437;28;20030;-83
2023/06/16 03:56:57;;;;;;;11.43;5.97;;;;;;;14.81;72.32;101665.84;4977062;28;20042;-82
2023/06/16 03:59:22;;;;;;;10.03;5.87;;;;;;;14.82;70.66;101666.66;4994276;28;20329;-82
2023/06/16 04:01:51;;;;;;;9.50;5.83;;;;;;;14.82;72.23;101664.78;4977195;28;20522;-82
2023/06/16 04:04:16;;;;;;;11.32;5.72;;;;;;;14.84;72.28;101670.03;4993330;28;20030;-82
2023/06/16 04:06:43;;;;;;;12.57;6.07;;;;;;;14.84;72.35;101670.03;4993274;28;20038;-82
2023/06/16 04:09:09;;;;;;;13.57;6.20;;;;;;;14.84;72.06;101664.56;4961323;28;20092;-82
2023/06/16 04:11:40;;;;;;;12.10;6.05;;;;;;;14.88;73.53;101669.34;4993179;28;20035;-83
2023/06/16 04:14:06;;;;;;;10.77;6.38;;;;;;;14.90;74.37;101672.66;4994793;28;20041;-83
2023/06/16 04:16:31;;;;;;;14.03;6.77;;;;;;;14.90;75.32;101680.03;4992863;28;20387;-82
2023/06/16 04:19:02;;;;;;;10.57;6.13;;;;;;;14.95;74.46;101687.56;4994388;28;20304;-82
2023/06/16 04:21:27;;;;;;;11.90;6.25;;;;;;;14.99;74.42;101686.06;4994743;28;20047;-82
2023/06/16 04:23:53;;;;;;;13.30;6.57;;;;;;;14.99;74.63;101689.63;4992619;28;20435;-83
2023/06/16 04:26:22;;;;;;;8.93;6.50;;;;;;;15.02;75.14;101680.97;4976840;28;20031;-83
2023/06/16 04:28:55;;;;;;;14.13;6.63;;;;;;;15.05;74.85;101688.72;4978566;28;20030;-83
2023/06/16 04:31:21;;;;;;;11.95;6.72;;;;;;;15.06;74.89;101682.19;4981928;28;20041;-83
2023/06/16 04:33:48;;;;;;;12.18;6.63;;;;;;;15.11;76.15;101688.91;4964646;28;20039;-83
2023/06/16 04:36:14;;;;;;;14.75;7.10;;;;;;;15.14;75.68;101683.78;4996742;28;20042;-82
2023/06/16 04:38:40;;;;;;;10.00;6.57;;;;;;;15.18;75.57;101678.72;4996995;28;20034;-82
2023/06/16 04:41:06;;;;;;;10.18;6.53;;;;;;;15.21;75.37;101694.69;4998183;28;20033;-82
2023/06/16 04:43:41;;;;;;;11.63;6.82;;;;;;;15.24;74.97;101686.84;4996864;28;20386;-83
2023/06/16 04:46:06;;;;;;;13.13;6.50;;;;;;;15.27;75.00;101685.56;4996848;28;20081;-82
2023/06/16 04:48:32;;;;;;;14.17;7.17;;;;;;;15.33;74.48;101690.13;4996703;28;20022;-84
2023/06/16 04:50:57;;;;;;;12.90;7.05;;;;;;;15.38;72.79;101681.25;4998259;28;20092;-82
2023/06/16 04:53:31;;;;;;;11.63;6.87;;;;;;;15.47;72.37;101687.25;4980420;28;20092;-82
2023/06/16 04:55:59;;;;;;;11.90;6.75;;;;;;;15.56;72.00;101688.59;4996625;28;20026;-83
2023/06/16 04:58:25;;;;;;;15.90;6.80;;;;;;;15.57;72.24;101688.38;4997844;28;20026;-82
2023/06/16 05:00:50;;;;;;;10.95;6.72;;;;;;;15.62;71.53;101687.72;4980541;28;20045;-82
2023/06/16 05:03:18;;;;;;;16.17;7.07;;;;;;;15.64;70.93;101696.50;4996832;28;20615;-82
2023/06/16 05:05:43;;;;;;;19.70;7.72;;;;;;;15.67;70.34;101687.03;4996330;28;20057;-82
2023/06/16 05:08:09;;;;;;;11.40;7.10;;;;;;;15.72;70.56;101695.38;4996686;28;20030;-83
2023/06/16 05:10:35;;;;;;;13.87;7.63;;;;;;;15.79;69.82;101696.97;4964163;28;20038;-81
2023/06/16 05:13:01;;;;;;;21.30;7.90;;;;;;;15.84;69.66;101699.06;4997572;28;20030;-81
2023/06/16 05:15:26;;;;;;;17.17;7.40;;;;;;;15.90;69.33;101698.13;4963976;28;20037;-81
2023/06/16 05:17:52;;;;;;;15.35;7.72;;;;;;;15.95;69.20;101695.50;4997297;28;20065;-81
2023/06/16 05:20:20;;;;;;;13.50;8.30;;;;;;;16.02;68.96;101711.00;4996617;28;20049;-81
2023/06/16 05:22:46;;;;;;;16.85;7.85;;;;;;;16.06;68.62;101707.59;4995946;28;20065;-80
2023/06/16 05:25:11;;;;;;;9.93;7.73;;;;;;;16.10;67.82;101702.50;4980627;28;20411;-80
2023/06/16 05:27:37;;;;;;;13.23;7.57;;;;;;;16.17;67.03;101702.41;4997315;28;20451;-83
2023/06/16 05:30:02;;;;;;;14.10;7.43;;;;;;;16.21;66.90;101700.84;4995533;28;20285;-80
2023/06/16 05:32:28;;;;;;;11.47;7.37;;;;;;;16.28;66.85;101704.34;4997883;28;20061;-79
2023/06/16 05:34:53;;;;;;;15.52;7.43;;;;;;;16.32;67.31;101700.06;4995666;28;20137;-79
2023/06/16 05:37:20;;;;;;;12.20;7.37;;;;;;;16.41;66.17;101714.28;4996130;28;20065;-80
2023/06/16 05:39:46;;;;;;;14.10;7.63;;;;;;;16.49;66.29;101705.72;4995105;28;20018;-83
2023/06/16 05:42:16;;;;;;;13.63;7.60;;;;;;;16.56;65.64;101713.84;4995657;28;20034;-83
2023/06/16 05:44:45;;;;;;;16.17;8.00;;;;;;;16.62;65.95;101699.19;4979761;28;20170;-84
2023/06/16 05:47:11;;;;;;;14.20;7.28;;;;;;;16.68;63.22;101709.19;4995180;28;20026;-85
2023/06/16 05:49:37;;;;;;;12.85;7.30;;;;;;;16.75;62.37;101712.69;4996508;28;20031;-84
2023/06/16 05:52:05;;;;;;;12.70;7.10;;;;;;;16.77;62.53;101702.34;4996379;28;20027;-85
2023/06/16 05:54:36;;;;;;;11.33;7.57;;;;;;;16.82;62.38;101709.84;4995517;28;20030;-85
2023/06/16 05:57:02;;;;;;;12.30;6.97;;;;;;;16.89;61.74;101710.59;4995655;28;20026;-85
2023/06/16 05:59:39;;;;;;;15.82;8.18;;;;;;;16.99;61.01;101713.59;4994897;28;20034;-85
2023/06/16 06:02:19;;;;;;;13.70;7.53;;;;;;;17.09;61.01;101714.91;4994902;28;20042;-85
2023/06/16 06:04:48;;;;;;;9.70;7.32;;;;;;;17.21;60.13;101717.63;4995784;28;20080;-85
2023/06/16 06:07:13;;;;;;;16.60;7.87;;;;;;;17.30;61.13;101716.19;4996181;28;20031;-84
2023/06/16 06:09:39;;;;;;;12.30;7.55;;;;;;;17.35;60.50;101719.91;4995254;28;20043;-84
2023/06/16 06:12:05;;;;;;;11.00;8.50;;;;;;;17.54;59.51;101722.50;4994839;28;20034;-85
2023/06/16 06:14:30;;;;;;;10.60;7.93;;;;;;;17.66;58.84;101720.56;4978981;28;20050;-84
2023/06/16 06:16:56;;;;;;;12.27;8.10;;;;;;;17.75;59.37;101725.69;4994715;28;20089;-85
2023/06/16 06:19:23;;;;;;;17.33;8.47;;;;;;;17.75;60.40;101722.94;4995992;28;20430;-81
2023/06/16 06:21:48;;;;;;;10.80;8.18;;;;;;;17.77;59.63;101715.28;4994161;28;20203;-82
2023/06/16 06:24:14;;;;;;;13.27;7.87;;;;;;;17.83;59.02;101733.53;4994931;28;20540;-82
2023/06/16 06:26:40;;;;;;;10.35;8.15;;;;;;;17.87;58.47;101726.50;4978213;28;20390;-82
2023/06/16 06:29:05;;;;;;;14.10;8.60;;;;;;;17.92;59.99;101723.03;4994555;28;20125;-82
2023/06/16 06:31:31;;;;;;;11.55;7.75;;;;;;;17.97;59.27;101737.72;4995864;28;20113;-82
2023/06/16 06:34:00;;;;;;;11.27;7.88;;;;;;;18.00;59.10;101731.72;4995053;28;20085;-82
2023/06/16 06:36:27;;;;;;;13.93;7.57;;;;;;;18.06;58.37;101733.50;4978956;28;20062;-82
2023/06/16 06:38:55;;;;;;;11.93;8.23;;;;;;;18.14;57.65;101737.75;4994688;28;20042;-82
2023/06/16 06:41:24;;;;;;;11.45;7.82;;;;;;;18.20;57.42;101734.06;4995255;28;20069;-82
2023/06/16 06:43:50;;;;;;;10.45;8.13;;;;;;;18.26;57.03;101731.38;4978333;28;20129;-82
2023/06/16 06:46:19;;;;;;;14.87;8.20;;;;;;;18.32;56.40;101736.75;4993991;28;20156;-82
2023/06/16 06:48:45;;;;;;;11.30;7.93;;;;;;;18.41;56.93;101739.94;4994529;28;20034;-83
2023/06/16 06:51:12;;;;;;;11.77;7.70;;;;;;;18.49;57.61;101745.00;4977772;28;20027;-82
2023/06/16 06:53:37;;;;;;;15.13;7.95;;;;;;;18.54;55.50;101725.88;4994832;28;20129;-81
2023/06/16 06:56:03;;;;;;;11.57;8.13;;;;;;;18.62;54.32;101737.56;4995788;28;20113;-81
2023/06/16 06:58:35;;;;;;;16.10;7.77;;;;;;;18.69;54.36;101735.47;4977973;28;20146;-81
2023/06/16 07:01:00;;;;;;;10.20;7.55;;;;;;;18.77;54.45;101741.38;4994662;28;20121;-80
2023/06/16 07:03:26;;;;;;;14.98;7.28;;;;;;;18.84;53.69;101741.22;4994516;28;20124;-81
2023/06/16 07:05:53;;;;;;;12.87;6.93;;;;;;;18.89;53.25;101740.50;4977840;28;20044;-81
2023/06/16 07:08:25;;;;;;;10.90;7.25;;;;;;;18.95;52.21;101747.75;4977549;28;20058;-80
2023/06/16 07:10:50;;;;;;;14.07;6.38;;;;;;;19.00;51.91;101742.34;4993818;28;20038;-81
2023/06/16 07:13:16;;;;;;;11.90;6.30;;;;;;;19.07;52.67;101744.91;4977896;28;20038;-81
2023/06/16 07:15:41;;;;;;;7.93;5.70;;;;;;;19.18;51.62;101745.94;4993768;28;20534;-81
2023/06/16 07:18:07;;;;;;;12.47;6.33;;;;;;;19.27;50.43;101741.66;4962187;28;20057;-80
2023/06/16 07:20:32;;;;;;;12.43;5.57;;;;;;;19.34;48.88;101744.22;4994843;28;20045;-81
2023/06/16 07:22:58;;;;;;;10.15;5.40;;;;;;;19.40;49.08;101744.06;4977669;28;20082;-81
2023/06/16 07:25:23;;;;;;;9.37;5.20;;;;;;;19.45;49.08;101748.78;4978744;28;20367;-81
2023/06/16 07:27:49;;;;;;;8.43;5.83;;;;;;;19.52;49.05;101754.13;4977669;28;20512;-81
2023/06/16 07:30:14;;;;;;;12.73;5.70;;;;;;;19.55;48.46;101745.38;4993780;28;20027;-81
2023/06/16 07:32:40;;;;;;;8.83;5.83;;;;;;;19.60;48.33;101739.91;4993543;28;20069;-81
2023/06/16 07:35:08;;;;;;;8.13;6.00;;;;;;;19.68;48.99;101749.66;4995190;28;20026;-81
2023/06/16 07:37:33;;;;;;;8.00;5.57;;;;;;;19.77;49.21;101750.91;4993708;28;20026;-81
2023/06/16 07:39:59;;;;;;;9.15;5.00;;;;;;;19.85;47.27;101741.38;4994234;28;20038;-81
2023/06/16 07:42:24;;;;;;;9.10;4.87;;;;;;;19.90;47.58;101749.69;4962057;28;20030;-81
2023/06/16 07:44:50;;;;;;;9.97;4.97;;;;;;;19.97;46.73;101750.34;4993419;28;20379;-81
2023/06/16 07:47:15;;;;;;;6.32;5.30;;;;;;;20.05;47.19;101754.56;4994924;28;20077;-81
2023/06/16 07:49:41;;;;;;;8.43;4.57;;;;;;;20.11;47.93;101754.38;4993606;28;20530;-81
2023/06/16 07:52:07;;;;;;;7.97;5.20;;;;;;;20.20;46.97;101748.41;4977197;28;20038;-81
2023/06/16 07:54:32;;;;;;;10.73;4.93;;;;;;;20.28;46.21;101743.25;4993470;28;20034;-81
2023/06/16 07:56:57;;;;;;;9.93;5.00;;;;;;;20.35;46.06;101743.06;4977667;28;20096;-81
2023/06/16 07:59:23;;;;;;;11.50;5.20;;;;;;;20.41;44.47;101746.69;4994252;28;20121;-81
2023/06/16 08:01:51;;;;;;;10.90;5.20;;;;;;;20.46;44.60;101746.75;4994460;28;20034;-81
2023/06/16 08:04:19;;;;;;;8.77;4.40;;;;;;;20.56;45.32;101748.78;4994005;28;20482;-81
2023/06/16 08:06:45;;;;;;;8.40;5.43;;;;;;;20.71;44.97;101737.91;4993224;28;20034;-81
2023/06/16 08:09:10;;;;;;;11.95;5.63;;;;;;;20.77;44.03;101744.31;4995130;28;20030;-81
2023/06/16 08:11:36;;;;;;;7.63;4.73;;;;;;;20.80;43.09;101741.88;4994663;28;20053;-81
2023/06/16 08:14:02;;;;;;;8.98;4.15;;;;;;;20.83;41.83;101735.81;4976819;28;20042;-81
2023/06/16 08:16:28;;;;;;;7.13;4.85;;;;;;;20.92;42.16;101740.84;4992863;28;20069;-81
2023/06/16 08:18:56;;;;;;;6.83;5.00;;;;;;;20.97;42.64;101736.19;4993139;28;20038;-81
2023/06/16 08:21:22;;;;;;;13.18;5.18;;;;;;;21.05;43.06;101745.09;4992697;28;20181;-81
2023/06/16 08:23:47;;;;;;;8.20;5.00;;;;;;;21.14;41.38;101743.50;4992993;28;20121;-81
2023/06/16 08:26:13;;;;;;;9.07;5.20;;;;;;;21.21;41.36;101735.81;4976606;28;20061;-81
2023/06/16 08:28:40;;;;;;;9.33;4.23;;;;;;;21.31;40.82;101737.81;4993847;28;20092;-81
2023/06/16 08:31:06;;;;;;;6.72;4.30;;;;;;;21.35;39.55;101733.44;4976902;28;20084;-81
2023/06/16 08:33:32;;;;;;;10.43;4.20;;;;;;;21.44;39.18;101739.28;4992454;28;20493;-81
2023/06/16 08:35:58;;;;;;;7.88;4.30;;;;;;;21.54;39.92;101742.13;4992639;28;20034;-81
2023/06/16 08:38:23;;;;;;;7.82;4.13;;;;;;;21.60;39.05;101730.03;4993634;28;20482;-81
2023/06/16 08:40:49;;;;;;;8.20;4.40;;;;;;;21.69;38.74;101733.91;4992713;28;20030;-81
2023/06/16 08:43:16;;;;;;;6.17;4.07;;;;;;;21.80;39.20;101733.97;4993101;28;20387;-81
2023/06/16 08:45:45;;;;;;;7.72;4.00;;;;;;;21.94;38.17;101735.13;4976401;28;20030;-81
2023/06/16 08:48:13;;;;;;;10.65;3.70;;;;;;;22.04;37.33;101728.78;4992765;28;20026;-81
2023/06/16 08:50:39;;;;;;;4.95;3.33;;;;;;;22.18;37.64;101727.19;4992592;28;20042;-81
2023/06/16 08:53:08;;;;;;;7.53;4.47;;;;;;;22.23;37.22;101729.97;4992640;28;20038;-81
2023/06/16 08:55:35;;;;;;;7.33;3.97;;;;;;;22.31;36.93;101736.91;4993953;28;20022;-81
2023/06/16 08:58:01;;;;;;;5.13;3.78;;;;;;;22.41;36.14;101723.13;4994447;28;20378;-81
2023/06/16 09:00:27;;;;;;;4.07;3.38;;;;;;;22.52;35.88;101734.19;4976516;28;20034;-83
2023/06/16 09:02:56;;;;;;;4.82;3.70;;;;;;;22.64;35.79;101731.16;4976549;28;20048;-84
2023/06/16 09:05:25;;;;;;;8.27;3.60;;;;;;;22.72;34.62;101722.31;4992413;28;20105;-83
2023/06/16 09:07:51;;;;;;;6.40;4.10;;;;;;;22.84;34.31;101730.31;4992452;28;20463;-83
2023/06/16 09:10:19;;;;;;;6.72;3.50;;;;;;;22.96;35.03;101725.34;4976158;28;20109;-83
2023/06/16 09:12:50;;;;;;;6.28;3.58;;;;;;;23.06;35.35;101717.03;4992455;28;20041;-83
2023/06/16 09:15:17;;;;;;;6.07;4.17;;;;;;;23.21;35.28;101720.91;4993917;28;20038;-83
2023/06/16 09:17:42;;;;;;;7.72;4.30;;;;;;;23.30;35.32;101731.13;4996463;28;20064;-83
2023/06/16 09:20:15;;;;;;;5.43;3.70;;;;;;;23.44;34.61;101725.00;4995820;28;20034;-83
2023/06/16 09:22:41;;;;;;;5.97;3.55;;;;;;;23.52;33.18;101727.22;4995448;28;20050;-83
2023/06/16 09:25:11;;;;;;;5.83;3.80;;;;;;;23.61;32.84;101725.50;4995929;28;20574;-83
2023/06/16 09:27:49;;;;;;;9.27;3.33;;;;;;;23.71;33.08;101730.19;4997854;28;20316;-83
2023/06/16 09:30:18;;;;;;;5.78;3.78;;;;;;;23.78;32.89;101725.19;4997119;28;20019;-83
2023/06/16 09:32:46;;;;;;;4.22;3.42;;;;;;;23.91;32.64;101722.94;4996347;28;20475;-83
2023/06/16 09:35:17;;;;;;;5.53;3.65;;;;;;;24.02;32.66;101726.47;4995879;28;20038;-83
2023/06/16 09:37:43;;;;;;;4.80;3.47;;;;;;;24.10;31.93;101721.16;4996004;28;20088;-83
2023/06/16 09:40:10;;;;;;;5.70;3.77;;;;;;;24.25;31.63;101724.97;4996084;28;20414;-82
2023/06/16 09:42:38;;;;;;;7.03;3.55;;;;;;;24.31;32.62;101721.03;4997305;28;20037;-83
2023/06/16 09:45:11;;;;;;;6.95;3.55;;;;;;;24.42;32.29;101716.22;4995585;28;20034;-82
2023/06/16 09:47:40;;;;;;;10.20;3.45;;;;;;;24.53;31.33;101706.72;4995818;28;20477;-83
2023/06/16 09:50:07;;;;;;;4.78;3.65;;;;;;;24.53;30.88;101712.28;4995232;28;20043;-83
2023/06/16 09:52:34;;;;;;;3.97;3.50;;;;;;;24.66;31.41;101714.44;4996588;28;20433;-83
2023/06/16 09:55:00;;;;;;;8.32;3.60;;;;;;;24.83;30.25;101710.41;4979760;28;20125;-83
2023/06/16 09:57:27;;;;;;;4.82;3.33;;;;;;;24.94;30.55;101714.75;4995429;28;20066;-83
2023/06/16 09:59:53;;;;;;;7.05;3.58;;;;;;;24.98;29.63;101706.66;4979320;28;20034;-83
2023/06/16 10:02:21;;;;;;;4.97;3.40;;;;;;;25.06;30.04;101708.78;4978727;28;20034;-83
2023/06/16 10:04:51;;;;;;;3.83;3.22;;;;;;;25.23;30.00;101705.56;4995289;28;20038;-83
2023/06/16 10:07:20;;;;;;;4.20;3.80;;;;;;;25.38;30.49;101705.44;4995200;28;20041;-83
2023/06/16 10:09:49;;;;;;;9.13;3.60;;;;;;;25.62;29.72;101706.56;4978840;28;20106;-83
2023/06/16 10:12:18;;;;;;;4.03;3.17;;;;;;;25.81;29.72;101706.59;4996952;28;20026;-83
2023/06/16 10:14:44;;;;;;;5.15;3.30;;;;;;;26.03;28.10;101711.63;4995195;28;20031;-83
2023/06/16 10:17:11;;;;;;;6.72;3.60;;;;;;;26.16;28.84;101702.53;4994534;28;20114;-83
2023/06/16 10:19:44;;;;;;;7.20;4.13;;;;;;;26.19;28.79;101698.28;4979037;28;20045;-84
2023/06/16 10:22:11;;;;;;;7.33;3.50;;;;;;;26.26;28.37;101701.53;4994976;28;20055;-83
2023/06/16 10:24:39;;;;;;;5.03;3.22;;;;;;;26.51;27.38;101696.69;4994774;28;20524;-83
2023/06/16 10:27:06;;;;;;;6.88;3.45;;;;;;;26.67;27.08;101700.91;4994440;28;20375;-83
2023/06/16 10:29:32;;;;;;;4.25;3.47;;;;;;;26.79;27.08;101695.66;4978439;28;20035;-83
2023/06/16 10:32:10;;;;;;;7.45;3.33;;;;;;;27.00;27.62;101698.09;4995060;28;20072;-83
2023/06/16 10:34:46;;;;;;;5.83;3.80;;;;;;;27.18;26.33;101689.97;4995555;28;20085;-83
2023/06/16 10:37:14;;;;;;;6.30;3.33;;;;;;;27.28;25.98;101684.19;4994503;28;20447;-83
2023/06/16 10:39:43;;;;;;;7.28;3.70;;;;;;;27.46;26.65;101680.53;4996671;28;20088;-83
2023/06/16 10:42:11;;;;;;;7.07;3.70;;;;;;;27.63;27.08;101685.44;4978221;28;20038;-83
2023/06/16 10:44:38;;;;;;;5.50;3.50;;;;;;;27.82;26.17;101690.06;4995694;28;20037;-83
2023/06/16 10:47:09;;;;;;;6.70;3.60;;;;;;;28.09;26.90;101680.03;4995944;28;20033;-84
2023/06/16 10:49:51;;;;;;;5.20;4.00;;;;;;;28.32;25.27;101675.28;4994295;28;20031;-84
2023/06/16 10:52:30;;;;;;;7.43;3.78;;;;;;;28.34;25.25;101678.59;4994202;28;20034;-83
2023/06/16 10:54:57;;;;;;;8.95;3.65;;;;;;;28.33;24.36;101688.09;4994377;28;20032;-83
2023/06/16 10:57:27;;;;;;;4.85;3.67;;;;;;;28.51;24.07;101677.91;4994360;28;20042;-83
2023/06/16 11:00:11;;;;;;;4.43;3.70;;;;;;;28.72;24.39;101675.44;4994337;28;20116;-84
2023/06/16 11:02:46;;;;;;;4.63;3.83;;;;;;;28.92;23.36;101674.03;4995511;28;20053;-83
2023/06/16 11:05:12;;;;;;;7.10;3.78;;;;;;;29.22;22.40;101675.22;4979358;28;20035;-83
2023/06/16 11:08:05;;;;;;;6.97;3.47;;;;;;;29.64;23.13;101666.44;4995276;28;20396;-84
2023/06/16 11:10:58;;;;;;;5.30;3.40;;;;;;;30.04;22.93;101674.72;4994625;28;20125;-84
2023/06/16 11:13:41;;;;;;;4.40;3.93;;;;;;;30.37;22.53;101663.06;4994133;28;20052;-85
2023/06/16 11:16:10;;;;;;;5.53;4.05;;;;;;;30.82;22.19;101667.44;4993954;28;20042;-85
2023/06/16 11:18:36;;;;;;;5.78;3.70;;;;;;;31.38;21.67;101658.97;4995215;28;20026;-84
2023/06/16 11:21:08;;;;;;;4.93;3.70;;;;;;;32.43;20.38;101660.22;4977606;28;20034;-84
2023/06/16 11:23:34;;;;;;;6.90;3.70;;;;;;;35.19;18.45;101661.41;4993377;28;20058;-84